Terminal Aerodrome Forecast
Issued by NWS

Home | Current Version | Previous Version | Text Only | Print | Product List | Glossary On
Versions: 1 2 3 4 5 6 7 8 9 10 11 12 13 14 15 16 17 18 19 20
573
FTUS44 KBMX 181248 AAA
TAFEET
TAF AMD
KEET 181248Z 1813/1912 18005KT P6SM BKN015
     FM181600 20012G18KT P6SM BKN020
     FM181900 21013G22KT P6SM BKN035
     FM190100 27018G28KT 4SM -RA BR OVC025
     FM190400 31015G25KT P6SM BKN035=

USA.gov is the U.S. government's official web portal to all federal, state and local government web resources and services.